sensor_id;sensor_type;location;lat;lon;timestamp;P1;durP1;ratioP1;P2;durP2;ratioP2
56599;SDS011;51832;48.152;11.530;2023-07-16T07:14:57;2.63;;;2.20;;
56599;SDS011;51832;48.152;11.530;2023-07-16T07:19:58;2.80;;;2.33;;
56599;SDS011;51832;48.152;11.530;2023-07-16T07:24:58;2.00;;;1.80;;
56599;SDS011;51832;48.152;11.530;2023-07-16T07:29:59;3.00;;;1.90;;
56599;SDS011;51832;48.152;11.530;2023-07-16T07:34:59;1.57;;;1.47;;
56599;SDS011;51832;48.152;11.530;2023-07-16T07:39:59;3.03;;;1.80;;
56599;SDS011;51832;48.152;11.530;2023-07-16T07:45:00;2.50;;;1.90;;
56599;SDS011;51832;48.152;11.530;2023-07-16T07:50:01;2.47;;;1.92;;
56599;SDS011;51832;48.152;11.530;2023-07-16T07:55:01;4.17;;;1.90;;
56599;SDS011;51832;48.152;11.530;2023-07-16T08:00:02;3.17;;;2.15;;
56599;SDS011;51832;48.152;11.530;2023-07-16T08:05:04;1.70;;;1.55;;
56599;SDS011;51832;48.152;11.530;2023-07-16T08:10:04;2.10;;;1.80;;
56599;SDS011;51832;48.152;11.530;2023-07-16T08:15:05;2.08;;;1.70;;
56599;SDS011;51832;48.152;11.530;2023-07-16T08:25:08;1.65;;;1.55;;
56599;SDS011;51832;48.152;11.530;2023-07-16T08:30:09;1.70;;;1.60;;
56599;SDS011;51832;48.152;11.530;2023-07-16T08:35:09;2.05;;;1.85;;
56599;SDS011;51832;48.152;11.530;2023-07-16T08:40:16;1.75;;;1.65;;
56599;SDS011;51832;48.152;11.530;2023-07-16T08:45:16;1.60;;;1.40;;
56599;SDS011;51832;48.152;11.530;2023-07-16T08:55:20;1.60;;;1.50;;
56599;SDS011;51832;48.152;11.530;2023-07-16T09:00:20;1.52;;;1.30;;
56599;SDS011;51832;48.152;11.530;2023-07-16T09:05:23;2.55;;;1.40;;
56599;SDS011;51832;48.152;11.530;2023-07-16T09:10:23;1.75;;;1.65;;
56599;SDS011;51832;48.152;11.530;2023-07-16T09:15:26;1.60;;;1.50;;
56599;SDS011;51832;48.152;11.530;2023-07-16T09:20:28;2.72;;;1.60;;
56599;SDS011;51832;48.152;11.530;2023-07-16T09:25:31;1.40;;;1.30;;
56599;SDS011;51832;48.152;11.530;2023-07-16T09:30:32;1.92;;;1.60;;
56599;SDS011;51832;48.152;11.530;2023-07-16T09:35:36;1.52;;;1.40;;
56599;SDS011;51832;48.152;11.530;2023-07-16T09:40:37;5.57;;;1.60;;
56599;SDS011;51832;48.152;11.530;2023-07-16T09:45:38;2.90;;;1.57;;
56599;SDS011;51832;48.152;11.530;2023-07-16T09:50:39;4.75;;;1.80;;
56599;SDS011;51832;48.152;11.530;2023-07-16T09:55:47;2.85;;;1.58;;
56599;SDS011;51832;48.152;11.530;2023-07-16T10:00:48;2.13;;;1.60;;
56599;SDS011;51832;48.152;11.530;2023-07-16T10:05:49;3.60;;;1.60;;
56599;SDS011;51832;48.152;11.530;2023-07-16T10:10:54;2.40;;;1.53;;
56599;SDS011;51832;48.152;11.530;2023-07-16T10:15:58;2.17;;;1.75;;
56599;SDS011;51832;48.152;11.530;2023-07-16T10:21:02;2.03;;;1.45;;
56599;SDS011;51832;48.152;11.530;2023-07-16T10:26:10;1.67;;;1.27;;
56599;SDS011;51832;48.152;11.530;2023-07-16T10:31:22;3.00;;;1.50;;
56599;SDS011;51832;48.152;11.530;2023-07-16T10:36:24;3.50;;;1.55;;
56599;SDS011;51832;48.152;11.530;2023-07-16T10:41:24;1.60;;;1.33;;
56599;SDS011;51832;48.152;11.530;2023-07-16T10:46:25;1.80;;;1.42;;
56599;SDS011;51832;48.152;11.530;2023-07-16T10:51:25;2.70;;;1.80;;
56599;SDS011;51832;48.152;11.530;2023-07-16T10:56:26;1.60;;;1.50;;
56599;SDS011;51832;48.152;11.530;2023-07-16T11:01:28;1.50;;;1.40;;
56599;SDS011;51832;48.152;11.530;2023-07-16T11:06:29;3.05;;;1.60;;
56599;SDS011;51832;48.152;11.530;2023-07-16T11:11:30;2.08;;;1.83;;
56599;SDS011;51832;48.152;11.530;2023-07-16T11:16:34;1.63;;;1.45;;
56599;SDS011;51832;48.152;11.530;2023-07-16T11:21:36;3.35;;;1.30;;
56599;SDS011;51832;48.152;11.530;2023-07-16T11:26:37;2.25;;;1.50;;
56599;SDS011;51832;48.152;11.530;2023-07-16T11:31:38;1.40;;;1.30;;
56599;SDS011;51832;48.152;11.530;2023-07-16T11:36:41;1.33;;;1.20;;
56599;SDS011;51832;48.152;11.530;2023-07-16T11:41:42;1.85;;;1.50;;
56599;SDS011;51832;48.152;11.530;2023-07-16T11:46:42;2.85;;;1.40;;
56599;SDS011;51832;48.152;11.530;2023-07-16T11:51:46;1.42;;;1.30;;
56599;SDS011;51832;48.152;11.530;2023-07-16T11:56:47;1.70;;;1.50;;
56599;SDS011;51832;48.152;11.530;2023-07-16T12:01:48;2.53;;;1.50;;
56599;SDS011;51832;48.152;11.530;2023-07-16T12:06:49;2.00;;;1.30;;
56599;SDS011;51832;48.152;11.530;2023-07-16T12:11:49;7.70;;;1.52;;
56599;SDS011;51832;48.152;11.530;2023-07-16T12:16:49;4.60;;;1.70;;
56599;SDS011;51832;48.152;11.530;2023-07-16T12:21:50;2.10;;;1.50;;
56599;SDS011;51832;48.152;11.530;2023-07-16T12:26:51;1.40;;;1.30;;
56599;SDS011;51832;48.152;11.530;2023-07-16T12:31:51;1.63;;;1.52;;
56599;SDS011;51832;48.152;11.530;2023-07-16T12:36:51;4.10;;;1.60;;
56599;SDS011;51832;48.152;11.530;2023-07-16T12:41:53;6.80;;;2.50;;
56599;SDS011;51832;48.152;11.530;2023-07-16T12:46:54;5.82;;;2.83;;
56599;SDS011;51832;48.152;11.530;2023-07-16T12:51:54;4.53;;;2.97;;
56599;SDS011;51832;48.152;11.530;2023-07-16T12:56:54;4.27;;;2.43;;
56599;SDS011;51832;48.152;11.530;2023-07-16T13:01:55;4.75;;;2.45;;
56599;SDS011;51832;48.152;11.530;2023-07-16T13:06:56;5.05;;;2.40;;
56599;SDS011;51832;48.152;11.530;2023-07-16T13:11:56;4.60;;;2.38;;
56599;SDS011;51832;48.152;11.530;2023-07-16T13:16:56;3.93;;;2.30;;
56599;SDS011;51832;48.152;11.530;2023-07-16T13:21:57;2.90;;;2.13;;
56599;SDS011;51832;48.152;11.530;2023-07-16T13:26:57;4.03;;;2.40;;
56599;SDS011;51832;48.152;11.530;2023-07-16T13:31:57;3.97;;;2.43;;
56599;SDS011;51832;48.152;11.530;2023-07-16T13:36:58;4.73;;;2.40;;
56599;SDS011;51832;48.152;11.530;2023-07-16T13:41:58;4.67;;;2.83;;
56599;SDS011;51832;48.152;11.530;2023-07-16T13:46:59;5.40;;;2.42;;
56599;SDS011;51832;48.152;11.530;2023-07-16T13:51:59;4.65;;;2.00;;
56599;SDS011;51832;48.152;11.530;2023-07-16T13:57:00;4.00;;;2.20;;
56599;SDS011;51832;48.152;11.530;2023-07-16T14:02:01;3.93;;;2.43;;
56599;SDS011;51832;48.152;11.530;2023-07-16T14:07:03;5.82;;;2.20;;
56599;SDS011;51832;48.152;11.530;2023-07-16T14:12:03;3.83;;;2.20;;
56599;SDS011;51832;48.152;11.530;2023-07-16T14:17:04;4.55;;;2.30;;
56599;SDS011;51832;48.152;11.530;2023-07-16T14:22:05;3.50;;;2.10;;
56599;SDS011;51832;48.152;11.530;2023-07-16T14:27:06;4.47;;;2.00;;
56599;SDS011;51832;48.152;11.530;2023-07-16T14:32:06;3.25;;;2.30;;
56599;SDS011;51832;48.152;11.530;2023-07-16T14:37:07;2.97;;;2.38;;
56599;SDS011;51832;48.152;11.530;2023-07-16T14:42:07;5.37;;;2.50;;
56599;SDS011;51832;48.152;11.530;2023-07-16T14:47:08;6.47;;;2.50;;
56599;SDS011;51832;48.152;11.530;2023-07-16T14:52:09;3.87;;;1.87;;
56599;SDS011;51832;48.152;11.530;2023-07-16T14:57:09;5.03;;;1.97;;
56599;SDS011;51832;48.152;11.530;2023-07-16T15:02:10;4.07;;;2.20;;
56599;SDS011;51832;48.152;11.530;2023-07-16T15:07:10;4.47;;;2.20;;
56599;SDS011;51832;48.152;11.530;2023-07-16T15:12:10;3.57;;;2.13;;
56599;SDS011;51832;48.152;11.530;2023-07-16T15:17:11;2.60;;;2.35;;
56599;SDS011;51832;48.152;11.530;2023-07-16T15:22:11;2.63;;;2.07;;
56599;SDS011;51832;48.152;11.530;2023-07-16T15:27:12;2.13;;;1.90;;
56599;SDS011;51832;48.152;11.530;2023-07-16T15:32:12;4.35;;;2.42;;
56599;SDS011;51832;48.152;11.530;2023-07-16T15:43:49;3.35;;;2.90;;
56599;SDS011;51832;48.152;11.530;2023-07-16T15:48:49;3.20;;;2.80;;
56599;SDS011;51832;48.152;11.530;2023-07-16T15:53:53;2.80;;;2.60;;
56599;SDS011;51832;48.152;11.530;2023-07-16T15:58:54;6.20;;;5.38;;
56599;SDS011;51832;48.152;11.530;2023-07-16T16:03:55;3.40;;;2.70;;
56599;SDS011;51832;48.152;11.530;2023-07-16T16:08:55;2.58;;;2.38;;
56599;SDS011;51832;48.152;11.530;2023-07-16T16:13:55;2.60;;;2.40;;
56599;SDS011;51832;48.152;11.530;2023-07-16T16:18:56;2.77;;;2.57;;
56599;SDS011;51832;48.152;11.530;2023-07-16T16:23:56;2.70;;;2.50;;
56599;SDS011;51832;48.152;11.530;2023-07-16T16:28:58;4.07;;;2.80;;
56599;SDS011;51832;48.152;11.530;2023-07-16T16:33:58;3.93;;;2.90;;
56599;SDS011;51832;48.152;11.530;2023-07-16T16:38:59;2.90;;;2.70;;
56599;SDS011;51832;48.152;11.530;2023-07-16T16:43:59;2.88;;;2.67;;
56599;SDS011;51832;48.152;11.530;2023-07-16T16:49:00;3.60;;;3.00;;
56599;SDS011;51832;48.152;11.530;2023-07-16T16:54:01;3.13;;;2.80;;
56599;SDS011;51832;48.152;11.530;2023-07-16T16:59:02;3.27;;;2.70;;
56599;SDS011;51832;48.152;11.530;2023-07-16T17:04:04;3.50;;;2.70;;
56599;SDS011;51832;48.152;11.530;2023-07-16T17:09:04;2.90;;;2.60;;
56599;SDS011;51832;48.152;11.530;2023-07-16T17:14:05;3.07;;;2.87;;
56599;SDS011;51832;48.152;11.530;2023-07-16T17:24:05;3.07;;;2.87;;
56599;SDS011;51832;48.152;11.530;2023-07-16T17:34:07;3.40;;;3.10;;
56599;SDS011;51832;48.152;11.530;2023-07-16T17:39:07;2.80;;;2.60;;
56599;SDS011;51832;48.152;11.530;2023-07-16T17:44:08;2.85;;;2.58;;
56599;SDS011;51832;48.152;11.530;2023-07-16T17:49:09;3.00;;;2.80;;
56599;SDS011;51832;48.152;11.530;2023-07-16T17:54:09;2.67;;;2.47;;
56599;SDS011;51832;48.152;11.530;2023-07-16T17:59:09;2.83;;;2.60;;
56599;SDS011;51832;48.152;11.530;2023-07-16T18:09:11;3.10;;;2.88;;
56599;SDS011;51832;48.152;11.530;2023-07-16T18:14:11;2.60;;;2.40;;
56599;SDS011;51832;48.152;11.530;2023-07-16T18:19:14;2.60;;;2.40;;
56599;SDS011;51832;48.152;11.530;2023-07-16T18:24:14;2.63;;;2.07;;
56599;SDS011;51832;48.152;11.530;2023-07-16T18:29:14;5.23;;;2.50;;
56599;SDS011;51832;48.152;11.530;2023-07-16T18:34:15;2.80;;;2.60;;
56599;SDS011;51832;48.152;11.530;2023-07-16T18:39:15;2.93;;;2.73;;
56599;SDS011;51832;48.152;11.530;2023-07-16T18:44:16;2.90;;;2.70;;
56599;SDS011;51832;48.152;11.530;2023-07-16T18:49:16;2.63;;;2.43;;
56599;SDS011;51832;48.152;11.530;2023-07-16T18:54:16;3.00;;;2.67;;
56599;SDS011;51832;48.152;11.530;2023-07-16T18:59:17;2.80;;;2.60;;
56599;SDS011;51832;48.152;11.530;2023-07-16T19:04:17;3.00;;;2.63;;
56599;SDS011;51832;48.152;11.530;2023-07-16T19:09:18;3.78;;;2.70;;
56599;SDS011;51832;48.152;11.530;2023-07-16T19:14:18;3.22;;;2.72;;
56599;SDS011;51832;48.152;11.530;2023-07-16T19:19:19;2.70;;;2.50;;
56599;SDS011;51832;48.152;11.530;2023-07-16T19:24:19;2.90;;;2.60;;
56599;SDS011;51832;48.152;11.530;2023-07-16T19:29:19;4.83;;;2.70;;
56599;SDS011;51832;48.152;11.530;2023-07-16T19:34:20;3.10;;;2.80;;
56599;SDS011;51832;48.152;11.530;2023-07-16T19:39:20;5.80;;;3.20;;
56599;SDS011;51832;48.152;11.530;2023-07-16T19:44:21;4.73;;;3.40;;
56599;SDS011;51832;48.152;11.530;2023-07-16T19:49:21;4.00;;;3.00;;
56599;SDS011;51832;48.152;11.530;2023-07-16T19:54:22;3.00;;;2.70;;
56599;SDS011;51832;48.152;11.530;2023-07-16T19:59:22;3.43;;;3.03;;
56599;SDS011;51832;48.152;11.530;2023-07-16T20:04:23;3.28;;;2.97;;
56599;SDS011;51832;48.152;11.530;2023-07-16T20:09:23;3.22;;;2.92;;
56599;SDS011;51832;48.152;11.530;2023-07-16T20:14:26;3.35;;;3.05;;
56599;SDS011;51832;48.152;11.530;2023-07-16T20:19:27;5.82;;;3.92;;
56599;SDS011;51832;48.152;11.530;2023-07-16T20:24:27;3.55;;;3.25;;
56599;SDS011;51832;48.152;11.530;2023-07-16T20:29:28;4.73;;;3.50;;
56599;SDS011;51832;48.152;11.530;2023-07-16T20:34:28;4.05;;;3.53;;
56599;SDS011;51832;48.152;11.530;2023-07-16T20:39:30;4.10;;;3.45;;
56599;SDS011;51832;48.152;11.530;2023-07-16T20:44:33;3.65;;;3.35;;
56599;SDS011;51832;48.152;11.530;2023-07-16T20:49:33;4.28;;;3.85;;
56599;SDS011;51832;48.152;11.530;2023-07-16T20:54:36;3.63;;;3.30;;
56599;SDS011;51832;48.152;11.530;2023-07-16T20:59:37;3.73;;;3.37;;
56599;SDS011;51832;48.152;11.530;2023-07-16T21:04:37;4.00;;;3.60;;
56599;SDS011;51832;48.152;11.530;2023-07-16T21:09:38;3.88;;;3.10;;
56599;SDS011;51832;48.152;11.530;2023-07-16T21:14:38;4.47;;;3.03;;
56599;SDS011;51832;48.152;11.530;2023-07-16T21:19:38;4.37;;;3.40;;
56599;SDS011;51832;48.152;11.530;2023-07-16T21:24:39;3.87;;;3.43;;
56599;SDS011;51832;48.152;11.530;2023-07-16T21:29:39;3.75;;;3.30;;
56599;SDS011;51832;48.152;11.530;2023-07-16T21:34:40;4.40;;;3.60;;
56599;SDS011;51832;48.152;11.530;2023-07-16T21:39:40;3.50;;;3.20;;
56599;SDS011;51832;48.152;11.530;2023-07-16T21:44:42;3.60;;;3.20;;
56599;SDS011;51832;48.152;11.530;2023-07-16T21:49:42;3.87;;;3.47;;
56599;SDS011;51832;48.152;11.530;2023-07-16T21:54:44;3.90;;;3.40;;
56599;SDS011;51832;48.152;11.530;2023-07-16T21:59:46;4.15;;;3.33;;
56599;SDS011;51832;48.152;11.530;2023-07-16T22:04:46;3.60;;;3.27;;
56599;SDS011;51832;48.152;11.530;2023-07-16T22:09:47;3.22;;;2.97;;
56599;SDS011;51832;48.152;11.530;2023-07-16T22:14:48;3.50;;;3.15;;
56599;SDS011;51832;48.152;11.530;2023-07-16T22:19:49;3.50;;;3.20;;
56599;SDS011;51832;48.152;11.530;2023-07-16T22:24:49;3.72;;;3.30;;
56599;SDS011;51832;48.152;11.530;2023-07-16T22:29:49;4.03;;;3.20;;
56599;SDS011;51832;48.152;11.530;2023-07-16T22:34:50;4.23;;;3.20;;
56599;SDS011;51832;48.152;11.530;2023-07-16T22:39:50;3.63;;;3.17;;
56599;SDS011;51832;48.152;11.530;2023-07-16T22:44:51;4.03;;;3.20;;
56599;SDS011;51832;48.152;11.530;2023-07-16T22:49:51;3.47;;;3.17;;
56599;SDS011;51832;48.152;11.530;2023-07-16T22:54:52;4.17;;;3.20;;
56599;SDS011;51832;48.152;11.530;2023-07-16T22:59:52;4.45;;;3.30;;
56599;SDS011;51832;48.152;11.530;2023-07-16T23:04:52;4.00;;;2.88;;
56599;SDS011;51832;48.152;11.530;2023-07-16T23:09:53;3.97;;;3.60;;
56599;SDS011;51832;48.152;11.530;2023-07-16T23:14:53;4.37;;;3.83;;
56599;SDS011;51832;48.152;11.530;2023-07-16T23:19:54;8.00;;;4.80;;
56599;SDS011;51832;48.152;11.530;2023-07-16T23:24:54;5.75;;;4.60;;
56599;SDS011;51832;48.152;11.530;2023-07-16T23:29:55;7.40;;;4.47;;
56599;SDS011;51832;48.152;11.530;2023-07-16T23:34:56;5.18;;;4.50;;
56599;SDS011;51832;48.152;11.530;2023-07-16T23:39:56;5.35;;;4.40;;
56599;SDS011;51832;48.152;11.530;2023-07-16T23:44:57;6.45;;;4.55;;
56599;SDS011;51832;48.152;11.530;2023-07-16T23:49:57;4.43;;;4.03;;
56599;SDS011;51832;48.152;11.530;2023-07-16T23:54:58;4.77;;;4.37;;
56599;SDS011;51832;48.152;11.530;2023-07-16T23:59:58;5.55;;;4.63;;
